createdAt,value
2023-11-09T00:00:51.299Z,9.90
2023-11-09T00:03:38.293Z,9.90
2023-11-09T00:06:05.926Z,10.10
2023-11-09T00:08:33.161Z,10.20
2023-11-09T00:11:01.006Z,10.20
2023-11-09T00:13:28.334Z,10.30
2023-11-09T00:15:57.119Z,10.30
2023-11-09T00:18:24.601Z,10.30
2023-11-09T00:20:53.343Z,10.30
2023-11-09T00:23:21.781Z,10.40
2023-11-09T00:25:48.986Z,10.40
2023-11-09T00:28:17.440Z,10.40
2023-11-09T00:30:45.285Z,10.40
2023-11-09T00:33:12.596Z,10.40
2023-11-09T00:35:40.767Z,10.30
2023-11-09T00:38:09.253Z,10.30
2023-11-09T00:40:37.091Z,10.30
2023-11-09T00:43:05.534Z,10.40
2023-11-09T00:45:35.802Z,10.60
2023-11-09T00:48:04.287Z,10.60
2023-11-09T00:50:32.396Z,10.70
2023-11-09T00:52:59.667Z,10.60
2023-11-09T00:55:26.927Z,10.50
2023-11-09T00:57:54.140Z,10.60
2023-11-09T01:00:22.060Z,10.50
2023-11-09T01:02:50.730Z,10.40
2023-11-09T01:05:18.022Z,10.40
2023-11-09T01:07:45.639Z,10.00
2023-11-09T01:10:12.992Z,10.00
2023-11-09T01:12:40.172Z,10.00
2023-11-09T01:15:07.860Z,10.00
2023-11-09T01:17:39.397Z,10.00
2023-11-09T01:20:08.428Z,9.80
2023-11-09T01:22:35.810Z,9.70
2023-11-09T01:25:03.425Z,9.80
2023-11-09T01:27:37.196Z,9.90
2023-11-09T01:30:04.953Z,9.90
2023-11-09T01:32:32.339Z,9.80
2023-11-09T01:35:00.762Z,9.90
2023-11-09T01:37:27.942Z,9.80
2023-11-09T01:39:55.358Z,9.70
2023-11-09T01:42:22.561Z,9.60
2023-11-09T01:44:49.830Z,9.50
2023-11-09T01:47:17.320Z,9.50
2023-11-09T01:49:45.304Z,9.60
2023-11-09T01:52:12.671Z,9.50
2023-11-09T01:54:40.079Z,9.50
2023-11-09T01:57:07.780Z,9.60
2023-11-09T01:59:36.959Z,9.60
2023-11-09T02:02:04.942Z,9.60
2023-11-09T02:07:19.144Z,9.60
2023-11-09T02:09:48.379Z,9.40
2023-11-09T02:12:15.646Z,9.40
2023-11-09T02:14:43.124Z,9.40
2023-11-09T02:17:11.290Z,9.50
2023-11-09T02:19:38.599Z,9.50
2023-11-09T02:22:06.436Z,9.50
2023-11-09T02:24:34.160Z,9.40
2023-11-09T02:27:02.749Z,9.30
2023-11-09T02:29:29.953Z,9.40
2023-11-09T02:31:58.562Z,9.30
2023-11-09T02:34:25.882Z,9.10
2023-11-09T02:36:54.484Z,9.10
2023-11-09T02:39:21.710Z,9.00
2023-11-09T02:41:48.809Z,9.10
2023-11-09T02:44:16.003Z,9.00
2023-11-09T02:46:43.288Z,8.90
2023-11-09T02:49:10.735Z,8.90
2023-11-09T02:51:37.906Z,8.90
2023-11-09T02:54:05.951Z,9.00
2023-11-09T02:56:34.716Z,9.00
2023-11-09T02:59:02.089Z,9.00
2023-11-09T03:01:29.222Z,9.00
2023-11-09T03:03:56.497Z,9.00
2023-11-09T03:06:23.728Z,9.10
2023-11-09T03:08:51.785Z,9.00
2023-11-09T03:11:19.783Z,9.00
2023-11-09T03:13:47.410Z,8.90
2023-11-09T03:16:14.807Z,9.00
2023-11-09T03:18:45.760Z,9.00
2023-11-09T03:21:13.017Z,8.90
2023-11-09T03:23:40.127Z,9.00
2023-11-09T03:26:07.302Z,9.00
2023-11-09T03:28:40.297Z,9.10
2023-11-09T03:31:08.335Z,9.10
2023-11-09T03:33:35.931Z,9.10
2023-11-09T03:36:03.221Z,9.00
2023-11-09T03:38:30.712Z,9.10
2023-11-09T03:40:57.904Z,9.00
2023-11-09T03:43:25.204Z,8.90
2023-11-09T03:45:52.400Z,9.00
2023-11-09T03:48:20.420Z,9.00
2023-11-09T03:50:47.667Z,9.00
2023-11-09T03:53:14.910Z,8.90
2023-11-09T03:55:42.333Z,8.90
2023-11-09T03:58:10.531Z,8.80
2023-11-09T04:00:39.106Z,8.80
2023-11-09T04:03:07.861Z,8.70
2023-11-09T04:05:35.442Z,8.50
2023-11-09T04:08:02.638Z,8.20
2023-11-09T04:10:29.917Z,8.10
2023-11-09T04:12:57.536Z,8.00
2023-11-09T04:15:24.704Z,7.90
2023-11-09T04:17:52.009Z,7.80
2023-11-09T04:20:20.269Z,7.90
2023-11-09T04:22:47.461Z,7.90
2023-11-09T04:25:14.706Z,7.90
2023-11-09T04:27:43.743Z,8.00
2023-11-09T04:30:16.376Z,8.00
2023-11-09T04:32:44.673Z,8.10
2023-11-09T04:35:12.197Z,8.10
2023-11-09T04:37:39.510Z,8.10
2023-11-09T04:40:15.771Z,8.10
2023-11-09T04:42:48.512Z,8.20
2023-11-09T04:45:17.876Z,8.20
2023-11-09T04:47:49.573Z,8.30
2023-11-09T04:50:19.193Z,8.30
2023-11-09T04:52:53.414Z,8.40
2023-11-09T04:55:33.526Z,8.50
2023-11-09T04:58:22.178Z,8.60
2023-11-09T05:01:07.929Z,8.90
2023-11-09T05:03:53.383Z,8.90
2023-11-09T05:06:39.047Z,8.90
2023-11-09T05:09:06.303Z,9.00
2023-11-09T05:11:33.521Z,8.90
2023-11-09T05:14:03.367Z,8.90
2023-11-09T05:16:31.478Z,9.10
2023-11-09T05:18:58.789Z,9.10
2023-11-09T05:21:26.005Z,9.30
2023-11-09T05:23:53.295Z,9.20
2023-11-09T05:26:20.751Z,8.80
2023-11-09T05:28:48.262Z,8.80
2023-11-09T05:31:15.603Z,8.80
2023-11-09T05:33:42.971Z,8.90
2023-11-09T05:36:10.169Z,8.90
2023-11-09T05:38:37.701Z,8.90
2023-11-09T05:41:05.607Z,9.00
2023-11-09T05:43:33.333Z,9.00
2023-11-09T05:46:00.888Z,9.10
2023-11-09T05:48:28.118Z,9.20
2023-11-09T05:50:57.473Z,9.20
2023-11-09T05:53:24.840Z,9.30
2023-11-09T05:55:52.225Z,9.40
2023-11-09T05:58:20.803Z,9.60
2023-11-09T06:00:48.056Z,9.60
2023-11-09T06:03:15.261Z,9.50
2023-11-09T06:05:42.605Z,9.50
2023-11-09T06:08:12.297Z,9.50
2023-11-09T06:10:40.498Z,9.70
2023-11-09T06:13:08.248Z,9.80
2023-11-09T06:15:35.489Z,9.80
2023-11-09T06:18:02.697Z,9.70
2023-11-09T06:20:31.317Z,9.70
2023-11-09T06:22:58.672Z,9.80
2023-11-09T06:25:25.917Z,9.80
2023-11-09T06:27:53.091Z,9.90
2023-11-09T06:30:21.406Z,10.00
2023-11-09T06:32:49.896Z,9.80
2023-11-09T06:35:19.765Z,9.40
2023-11-09T06:37:47.054Z,9.40
2023-11-09T06:40:18.081Z,9.20
2023-11-09T06:42:48.428Z,9.30
2023-11-09T06:45:15.602Z,9.60
2023-11-09T06:47:43.298Z,9.50
2023-11-09T06:50:13.900Z,9.50
2023-11-09T06:52:41.480Z,9.70
2023-11-09T06:55:13.310Z,9.80
2023-11-09T06:57:43.320Z,10.00
2023-11-09T07:00:12.621Z,9.70
2023-11-09T07:02:40.992Z,9.60
2023-11-09T07:05:09.669Z,9.80
2023-11-09T07:07:39.407Z,9.70
2023-11-09T07:10:08.994Z,9.80
2023-11-09T07:12:37.011Z,9.90
2023-11-09T07:15:05.355Z,10.00
2023-11-09T07:17:32.539Z,10.00
2023-11-09T07:20:00.542Z,10.10
2023-11-09T07:22:27.856Z,10.20
2023-11-09T07:25:07.826Z,10.30
2023-11-09T07:27:38.574Z,10.40
2023-11-09T07:30:06.440Z,10.50
2023-11-09T07:32:33.667Z,10.30
2023-11-09T07:35:01.025Z,10.40
2023-11-09T07:37:28.825Z,10.60
2023-11-09T07:39:56.047Z,10.70
2023-11-09T07:42:24.543Z,10.60
2023-11-09T07:44:52.422Z,10.90
2023-11-09T07:47:19.611Z,10.80
2023-11-09T07:49:48.365Z,10.90
2023-11-09T07:52:16.370Z,10.80
2023-11-09T07:54:47.602Z,11.00
2023-11-09T07:57:14.779Z,10.90
2023-11-09T07:59:46.593Z,10.80
2023-11-09T08:02:14.381Z,10.90
2023-11-09T08:04:42.534Z,11.00
2023-11-09T08:07:10.371Z,11.10
2023-11-09T08:09:37.744Z,11.30
2023-11-09T08:12:05.483Z,11.30
2023-11-09T08:14:33.017Z,11.30
2023-11-09T08:17:00.250Z,11.10
2023-11-09T08:19:27.836Z,11.00
2023-11-09T08:21:55.078Z,11.10
2023-11-09T08:24:22.261Z,11.10
2023-11-09T08:26:50.248Z,11.00
2023-11-09T08:29:17.370Z,11.10
2023-11-09T08:31:45.310Z,11.30
2023-11-09T08:34:12.672Z,11.40
2023-11-09T08:36:40.001Z,11.60
2023-11-09T08:39:10.562Z,11.90
2023-11-09T08:41:38.901Z,11.90
2023-11-09T08:44:06.061Z,11.90
2023-11-09T08:46:33.291Z,12.10
2023-11-09T08:49:04.560Z,12.50
2023-11-09T08:51:31.665Z,12.70
2023-11-09T08:53:58.987Z,12.90
2023-11-09T08:56:26.740Z,13.10
2023-11-09T08:58:54.095Z,13.30
2023-11-09T09:01:21.517Z,13.30
2023-11-09T09:03:52.760Z,13.40
2023-11-09T09:06:20.264Z,13.50
2023-11-09T09:08:48.838Z,13.70
2023-11-09T09:11:19.074Z,13.80
2023-11-09T09:13:46.680Z,13.60
2023-11-09T09:16:17.186Z,13.60
2023-11-09T09:21:31.604Z,14.00
2023-11-09T09:23:59.911Z,13.50
2023-11-09T09:26:27.579Z,13.80
2023-11-09T09:28:54.798Z,14.40
2023-11-09T09:31:22.113Z,14.90
2023-11-09T09:34:09.992Z,15.10
2023-11-09T09:36:38.759Z,15.50
2023-11-09T09:39:08.210Z,15.10
2023-11-09T09:41:53.043Z,14.80
2023-11-09T09:44:20.937Z,15.30
2023-11-09T09:46:49.598Z,15.70
2023-11-09T09:49:18.498Z,15.80
2023-11-09T09:51:45.748Z,15.50
2023-11-09T09:54:13.509Z,15.20
2023-11-09T09:56:42.216Z,15.50
2023-11-09T09:59:13.370Z,15.70
2023-11-09T10:01:49.201Z,14.90
2023-11-09T10:04:17.112Z,14.60
2023-11-09T10:06:47.107Z,15.30
2023-11-09T10:09:16.573Z,16.00
2023-11-09T10:11:44.216Z,15.60
2023-11-09T10:14:17.306Z,15.90
2023-11-09T10:16:48.055Z,16.30
2023-11-09T10:19:15.280Z,16.90
2023-11-09T10:21:45.307Z,17.30
2023-11-09T10:24:15.664Z,16.70
2023-11-09T10:26:46.747Z,16.70
2023-11-09T10:29:21.219Z,17.00
2023-11-09T10:34:33.911Z,17.60
2023-11-09T10:37:01.728Z,18.10
2023-11-09T10:39:30.256Z,18.70
2023-11-09T10:41:58.974Z,19.60
2023-11-09T10:44:31.558Z,20.20
2023-11-09T10:47:04.249Z,20.10
2023-11-09T10:49:38.918Z,20.80
2023-11-09T10:52:06.657Z,20.80
2023-11-09T10:54:34.308Z,20.30
2023-11-09T10:57:06.676Z,20.50
2023-11-09T10:59:42.986Z,20.30
2023-11-09T11:02:21.730Z,20.20
2023-11-09T11:04:53.257Z,19.50
2023-11-09T11:07:26.857Z,19.20
2023-11-09T11:09:57.555Z,19.40
2023-11-09T11:12:25.307Z,19.50
2023-11-09T11:14:54.864Z,19.80
2023-11-09T11:17:29.759Z,20.20
2023-11-09T11:20:19.241Z,20.20
2023-11-09T11:26:03.395Z,20.30
2023-11-09T11:28:32.405Z,21.50
2023-11-09T11:31:06.393Z,23.70
2023-11-09T11:33:37.588Z,25.00
2023-11-09T11:36:05.813Z,26.50
2023-11-09T11:38:36.404Z,26.90
2023-11-09T11:41:12.168Z,26.40
2023-11-09T11:43:43.310Z,27.80
2023-11-09T11:46:13.860Z,28.20
2023-11-09T11:48:52.345Z,28.50
2023-11-09T11:51:19.920Z,29.10
2023-11-09T11:54:09.835Z,29.60
2023-11-09T11:56:39.567Z,30.00
2023-11-09T11:59:08.605Z,29.30
2023-11-09T12:01:36.836Z,29.50
2023-11-09T12:04:08.104Z,29.70
2023-11-09T12:06:43.134Z,30.00
2023-11-09T12:09:12.963Z,30.60
2023-11-09T12:11:47.741Z,30.00
2023-11-09T12:14:17.234Z,30.10
2023-11-09T12:16:44.527Z,30.20
2023-11-09T12:19:16.917Z,30.30
2023-11-09T12:21:49.928Z,30.40
2023-11-09T12:24:25.035Z,30.00
2023-11-09T12:27:08.129Z,30.10
2023-11-09T12:29:44.946Z,29.80
2023-11-09T12:32:14.075Z,29.90
2023-11-09T12:34:42.719Z,30.10
2023-11-09T12:37:16.401Z,30.60
2023-11-09T12:39:44.714Z,30.30
2023-11-09T12:42:15.868Z,30.40
2023-11-09T12:44:45.820Z,30.50
2023-11-09T12:47:14.412Z,31.00
2023-11-09T12:49:44.490Z,30.40
2023-11-09T12:52:12.428Z,29.80
2023-11-09T12:54:41.416Z,30.00
2023-11-09T12:57:09.578Z,29.30
2023-11-09T12:59:43.477Z,29.30
2023-11-09T13:02:18.973Z,29.80
2023-11-09T13:04:49.701Z,29.20
2023-11-09T13:07:17.073Z,29.20
2023-11-09T13:09:47.720Z,29.90
2023-11-09T13:12:35.616Z,29.00
2023-11-09T13:15:25.918Z,29.60
2023-11-09T13:17:55.062Z,29.20
2023-11-09T13:20:40.344Z,29.30
2023-11-09T13:23:13.567Z,29.50
2023-11-09T13:25:53.250Z,30.20
2023-11-09T13:28:21.932Z,30.70
2023-11-09T13:30:51.795Z,30.40
2023-11-09T13:33:37.258Z,29.60
2023-11-09T13:36:14.635Z,29.90
2023-11-09T13:38:57.939Z,29.70
2023-11-09T13:41:40.581Z,30.20
2023-11-09T13:44:08.604Z,30.20
2023-11-09T13:46:44.175Z,29.70
2023-11-09T13:49:17.326Z,28.50
2023-11-09T13:51:58.498Z,28.50
2023-11-09T13:54:44.875Z,28.60
2023-11-09T13:57:12.337Z,28.70
2023-11-09T14:00:06.856Z,28.80
2023-11-09T14:02:35.668Z,28.20
2023-11-09T14:05:10.448Z,28.10
2023-11-09T14:07:43.914Z,27.80
2023-11-09T14:10:29.863Z,27.40
2023-11-09T14:13:10.758Z,27.20
2023-11-09T14:15:51.043Z,27.30
2023-11-09T14:18:27.350Z,26.70
2023-11-09T14:23:49.499Z,26.80
2023-11-09T14:26:17.128Z,25.70
2023-11-09T14:28:44.540Z,25.50
2023-11-09T14:31:15.003Z,25.00
2023-11-09T14:33:43.211Z,24.40
2023-11-09T14:36:10.346Z,23.70
2023-11-09T14:38:42.771Z,21.10
2023-11-09T14:41:17.726Z,19.20
2023-11-09T14:43:45.051Z,18.10
2023-11-09T14:46:19.012Z,17.70
2023-11-09T14:48:46.592Z,17.20
2023-11-09T14:51:25.821Z,17.00
2023-11-09T14:53:53.864Z,16.80
2023-11-09T14:56:23.022Z,16.60
2023-11-09T14:58:52.572Z,16.50
2023-11-09T15:01:20.283Z,16.30
2023-11-09T15:03:47.618Z,16.20
2023-11-09T15:06:15.990Z,16.10
2023-11-09T15:08:43.867Z,16.00
2023-11-09T15:11:14.884Z,15.90
2023-11-09T15:13:46.497Z,15.90
2023-11-09T15:16:20.497Z,15.80
2023-11-09T15:18:49.115Z,15.70
2023-11-09T15:21:18.083Z,15.60
2023-11-09T15:23:45.786Z,15.50
2023-11-09T15:26:14.001Z,15.30
2023-11-09T15:28:41.780Z,15.40
2023-11-09T15:31:09.236Z,15.20
2023-11-09T15:33:36.644Z,15.20
2023-11-09T15:36:05.256Z,15.10
2023-11-09T15:38:33.107Z,14.90
2023-11-09T15:41:18.512Z,14.80
2023-11-09T15:43:50.577Z,14.60
2023-11-09T15:46:18.029Z,14.50
2023-11-09T15:48:47.419Z,14.50
2023-11-09T15:54:02.632Z,14.30
2023-11-09T15:56:30.770Z,14.30
2023-11-09T15:58:58.512Z,14.30
2023-11-09T16:01:27.485Z,14.30
2023-11-09T16:03:55.541Z,14.30
2023-11-09T16:06:23.427Z,14.30
2023-11-09T16:08:53.689Z,14.30
2023-11-09T16:11:21.879Z,14.30
2023-11-09T16:13:51.502Z,14.40
2023-11-09T16:16:18.978Z,14.30
2023-11-09T16:18:48.350Z,14.20
2023-11-09T16:21:18.695Z,14.10
2023-11-09T16:24:10.165Z,13.50
2023-11-09T16:26:39.874Z,13.20
2023-11-09T16:29:07.834Z,13.20
2023-11-09T16:31:35.313Z,13.30
2023-11-09T16:34:02.708Z,13.20
2023-11-09T16:36:30.224Z,13.20
2023-11-09T16:41:45.711Z,12.80
2023-11-09T16:44:15.728Z,13.00
2023-11-09T16:46:42.999Z,12.90
2023-11-09T16:49:12.399Z,12.90
2023-11-09T16:51:40.121Z,12.90
2023-11-09T16:54:07.516Z,12.90
2023-11-09T16:56:35.704Z,12.80
2023-11-09T16:59:02.950Z,12.80
2023-11-09T17:01:31.107Z,12.70
2023-11-09T17:03:58.665Z,12.60
2023-11-09T17:06:26.630Z,12.60
2023-11-09T17:08:53.930Z,12.50
2023-11-09T17:14:07.167Z,12.50
2023-11-09T17:16:34.577Z,12.50
2023-11-09T17:19:02.441Z,12.50
2023-11-09T17:21:29.640Z,12.50
2023-11-09T17:23:57.308Z,12.50
2023-11-09T17:26:26.235Z,12.50
2023-11-09T17:28:54.562Z,12.50
2023-11-09T17:31:21.891Z,12.40
2023-11-09T17:33:49.195Z,12.30
2023-11-09T17:36:17.262Z,12.30
2023-11-09T17:38:44.972Z,12.30
2023-11-09T17:41:14.724Z,12.20
2023-11-09T17:46:27.693Z,12.00
2023-11-09T17:48:55.406Z,12.00
2023-11-09T17:51:22.575Z,12.00
2023-11-09T17:53:49.934Z,12.10
2023-11-09T17:56:17.158Z,12.00
2023-11-09T17:58:45.228Z,12.00
2023-11-09T18:01:12.725Z,11.80
2023-11-09T18:03:40.057Z,11.40
2023-11-09T18:06:11.785Z,11.20
2023-11-09T18:08:42.076Z,11.10
2023-11-09T18:11:09.420Z,11.00
2023-11-09T18:13:36.644Z,10.90
2023-11-09T18:16:06.122Z,10.80
2023-11-09T18:18:33.767Z,10.80
2023-11-09T18:21:01.336Z,10.80
2023-11-09T18:23:29.955Z,11.00
2023-11-09T18:25:57.245Z,11.20
2023-11-09T18:28:24.563Z,11.30
2023-11-09T18:31:10.549Z,11.20
2023-11-09T18:33:37.945Z,11.20
2023-11-09T18:36:05.621Z,11.30
2023-11-09T18:38:35.018Z,11.20
2023-11-09T18:41:02.488Z,11.20
2023-11-09T18:43:29.795Z,11.20
2023-11-09T18:45:57.140Z,11.30
2023-11-09T18:48:25.176Z,11.30
2023-11-09T18:53:23.964Z,11.20
2023-11-09T18:55:51.756Z,11.30
2023-11-09T18:58:19.121Z,11.30
2023-11-09T19:00:46.707Z,11.30
2023-11-09T19:05:44.167Z,11.20
2023-11-09T19:14:02.001Z,11.10
2023-11-09T19:16:29.412Z,11.10
2023-11-09T19:18:56.965Z,10.70
2023-11-09T19:24:04.253Z,10.70
2023-11-09T19:26:32.025Z,10.70
2023-11-09T19:28:59.539Z,10.70
2023-11-09T19:34:11.578Z,10.70
2023-11-09T19:36:38.899Z,10.70
2023-11-09T19:39:11.747Z,10.60
2023-11-09T19:41:43.503Z,10.50
2023-11-09T19:44:10.782Z,10.50
2023-11-09T19:49:22.821Z,10.40
2023-11-09T19:51:50.086Z,10.40
2023-11-09T19:54:18.131Z,10.30
2023-11-09T19:56:45.522Z,10.30
2023-11-09T19:59:12.840Z,10.10
2023-11-09T20:01:41.063Z,10.00
2023-11-09T20:04:08.611Z,10.00
2023-11-09T20:06:35.937Z,10.10
2023-11-09T20:09:05.527Z,10.10
2023-11-09T20:11:34.560Z,10.00
2023-11-09T20:14:03.851Z,9.90
2023-11-09T20:19:20.102Z,9.90
2023-11-09T20:21:47.670Z,9.90
2023-11-09T20:24:14.964Z,9.90
2023-11-09T20:26:42.537Z,9.80
2023-11-09T20:29:09.968Z,9.80
2023-11-09T20:31:37.298Z,9.80
2023-11-09T20:34:04.605Z,9.70
2023-11-09T20:36:31.949Z,9.70
2023-11-09T20:39:02.212Z,9.70
2023-11-09T20:41:31.565Z,9.50
2023-11-09T20:43:58.796Z,9.70
2023-11-09T20:46:26.066Z,9.70
2023-11-09T20:48:59.582Z,9.80
2023-11-09T20:51:27.148Z,9.70
2023-11-09T20:53:54.495Z,9.70
2023-11-09T20:56:21.788Z,9.80
2023-11-09T20:58:49.016Z,9.70
2023-11-09T21:01:16.241Z,9.80
2023-11-09T21:03:45.758Z,9.50
2023-11-09T21:06:13.285Z,9.40
2023-11-09T21:08:40.693Z,9.50
2023-11-09T21:11:07.989Z,9.60
2023-11-09T21:16:22.389Z,9.60
2023-11-09T21:18:49.795Z,9.60
2023-11-09T21:21:17.067Z,9.50
2023-11-09T21:23:44.445Z,9.50
2023-11-09T21:26:14.281Z,9.30
2023-11-09T21:28:41.728Z,9.20
2023-11-09T21:31:09.002Z,9.30
2023-11-09T21:33:39.747Z,9.50
2023-11-09T21:36:15.318Z,9.50
2023-11-09T21:38:42.819Z,9.50
2023-11-09T21:41:09.998Z,9.50
2023-11-09T21:43:37.138Z,9.40
2023-11-09T21:46:09.778Z,9.30
2023-11-09T21:48:39.754Z,9.40
2023-11-09T21:51:07.209Z,9.30
2023-11-09T21:53:34.463Z,9.40
2023-11-09T21:56:06.369Z,9.40
2023-11-09T21:58:34.288Z,9.30
2023-11-09T22:01:01.953Z,9.10
2023-11-09T22:03:29.283Z,8.90
2023-11-09T22:05:56.702Z,8.90
2023-11-09T22:08:23.958Z,9.00
2023-11-09T22:13:38.187Z,8.70
2023-11-09T22:16:06.466Z,8.80
2023-11-09T22:18:37.316Z,8.70
2023-11-09T22:21:09.827Z,8.70
2023-11-09T22:23:37.396Z,8.70
2023-11-09T22:26:04.753Z,8.70
2023-11-09T22:28:32.096Z,8.50
2023-11-09T22:30:59.468Z,8.70
2023-11-09T22:33:27.316Z,8.90
2023-11-09T22:35:54.616Z,8.90
2023-11-09T22:38:22.024Z,8.90
2023-11-09T22:40:49.360Z,9.00
2023-11-09T22:43:19.192Z,9.00
2023-11-09T22:45:46.835Z,9.10
2023-11-09T22:48:14.536Z,9.10
2023-11-09T22:50:42.021Z,9.20
2023-11-09T22:53:09.214Z,9.10
2023-11-09T22:55:36.374Z,9.00
2023-11-09T22:58:21.912Z,8.60
2023-11-09T23:00:52.203Z,8.70
2023-11-09T23:03:19.895Z,8.80
2023-11-09T23:05:48.057Z,9.00
2023-11-09T23:08:20.539Z,8.70
2023-11-09T23:10:51.830Z,8.90
2023-11-09T23:13:19.548Z,8.70
2023-11-09T23:15:47.836Z,8.80
2023-11-09T23:18:18.120Z,8.70
2023-11-09T23:29:03.833Z,8.70
2023-11-09T23:31:31.276Z,8.90
2023-11-09T23:34:01.894Z,8.70
2023-11-09T23:36:29.780Z,8.60
2023-11-09T23:38:57.147Z,8.40
2023-11-09T23:41:24.340Z,8.30
2023-11-09T23:43:51.566Z,8.20
2023-11-09T23:46:18.787Z,8.00
2023-11-09T23:48:46.006Z,7.90
2023-11-09T23:51:15.239Z,7.80
2023-11-09T23:53:42.501Z,8.00
2023-11-09T23:56:09.735Z,8.00
2023-11-09T23:58:36.935Z,8.20
